Time;durP1;ratioP1;P1;durP2;ratioP2;P2;SDS_P1;SDS_P2;PMS_P1;PMS_P2;Temp;Humidity;BMP_temperature;BMP_pressure;BME280_temperature;BME280_humidity;BME280_pressure;Samples;Min_cycle;Max_cycle;Signal;HPM_P1;HPM_P2
2022/08/29 00:00:30;;;;;;;18.45;5.65;;;;;;;16.54;100.00;156676.41;5000437;28;20065;-79
2022/08/29 00:02:58;;;;;;;25.45;6.03;;;;;;;16.54;100.00;156676.41;4978126;28;20505;-77
2022/08/29 00:05:28;;;;;;;23.13;5.32;;;;;;;16.53;100.00;156673.81;5004693;28;20442;-76
2022/08/29 00:07:54;;;;;;;19.92;5.28;;;;;;;16.52;100.00;156671.25;5016835;28;20030;-75
2022/08/29 00:10:20;;;;;;;13.63;4.15;;;;;;;16.41;100.00;156644.22;5003024;28;20051;-78
2022/08/29 00:12:46;;;;;;;12.77;4.28;;;;;;;16.35;100.00;156628.78;4997180;28;20041;-76
2022/08/29 00:15:13;;;;;;;17.85;4.65;;;;;;;16.33;100.00;156623.56;5006379;28;20092;-77
2022/08/29 00:17:39;;;;;;;12.57;3.88;;;;;;;16.31;100.00;156618.44;5033582;28;20057;-76
2022/08/29 00:20:07;;;;;;;17.92;4.45;;;;;;;16.32;100.00;156621.03;5003159;28;20067;-76
2022/08/29 00:22:33;;;;;;;16.58;4.00;;;;;;;16.32;100.00;156622.31;4985125;28;20041;-75
2022/08/29 00:25:01;;;;;;;16.88;4.35;;;;;;;16.30;100.00;156615.88;5018653;28;20033;-76
2022/08/29 00:27:28;;;;;;;16.30;4.05;;;;;;;16.33;100.00;156624.91;4989977;28;20046;-76
2022/08/29 00:29:54;;;;;;;14.68;4.18;;;;;;;16.34;100.00;156626.16;5006080;28;20478;-76
2022/08/29 00:32:19;;;;;;;19.75;4.78;;;;;;;16.33;100.00;156623.56;5017671;28;20034;-75
2022/08/29 00:34:44;;;;;;;17.08;3.60;;;;;;;16.35;100.00;156628.78;5029560;28;20072;-76
2022/08/29 00:37:10;;;;;;;18.13;3.75;;;;;;;16.34;100.00;156626.16;5006234;28;20514;-75
2022/08/29 00:39:36;;;;;;;13.55;3.55;;;;;;;16.37;100.00;156633.91;5001552;28;20057;-76
2022/08/29 00:42:01;;;;;;;13.05;4.20;;;;;;;16.34;100.00;156627.44;5015231;28;20033;-76
2022/08/29 00:44:27;;;;;;;20.35;4.60;;;;;;;16.34;100.00;156626.16;5015079;28;20486;-76
2022/08/29 00:47:01;;;;;;;13.90;3.97;;;;;;;16.36;100.00;156631.31;5018138;28;20169;-75
2022/08/29 00:49:33;;;;;;;14.95;3.97;;;;;;;16.38;100.00;156635.19;4992732;28;20534;-76
2022/08/29 00:52:06;;;;;;;16.70;3.83;;;;;;;16.32;100.00;156621.03;4989047;28;20641;-76
2022/08/29 00:54:32;;;;;;;13.65;3.67;;;;;;;16.29;100.00;156613.28;5030542;28;20053;-77
2022/08/29 00:56:58;;;;;;;17.30;4.10;;;;;;;16.26;100.00;156606.88;4986215;28;20128;-77
2022/08/29 00:59:32;;;;;;;17.27;4.28;;;;;;;16.28;100.00;156610.75;5010306;28;20037;-77
2022/08/29 01:01:58;;;;;;;13.15;3.42;;;;;;;16.31;100.00;156619.75;5036846;28;20026;-78
2022/08/29 01:04:23;;;;;;;17.50;4.10;;;;;;;16.30;100.00;156617.16;5022850;28;20053;-79
2022/08/29 01:06:51;;;;;;;13.02;3.90;;;;;;;16.33;100.00;156623.56;5023166;28;20048;-77
2022/08/29 01:09:17;;;;;;;17.15;4.18;;;;;;;16.34;100.00;156626.16;4991155;28;20065;-75
2022/08/29 01:14:27;;;;;;;14.95;4.10;;;;;;;16.34;100.00;156627.44;5036141;28;20061;-77
2022/08/29 01:16:56;;;;;;;16.05;4.13;;;;;;;16.41;100.00;156644.22;5024103;28;20037;-76
2022/08/29 01:19:48;;;;;;;14.85;3.92;;;;;;;16.41;100.00;156642.94;5008685;28;20845;-75
2022/08/29 01:22:42;;;;;;;14.20;4.45;;;;;;;16.38;100.00;156636.47;5032217;28;20080;-75
2022/08/29 01:25:12;;;;;;;17.23;4.45;;;;;;;16.40;100.00;156640.34;4992143;28;20040;-76
2022/08/29 01:27:42;;;;;;;16.13;4.45;;;;;;;16.33;100.00;156623.56;5009788;28;20073;-75
2022/08/29 01:30:09;;;;;;;21.55;4.93;;;;;;;16.30;100.00;156615.88;5001543;28;20044;-74
2022/08/29 01:32:34;;;;;;;17.23;4.15;;;;;;;16.30;100.00;156617.16;5011143;28;20044;-76
2022/08/29 01:35:00;;;;;;;15.88;4.40;;;;;;;16.28;100.00;156612.00;5003196;28;20041;-74
2022/08/29 01:37:30;;;;;;;17.42;4.57;;;;;;;16.30;100.00;156615.88;4991544;28;20065;-75
2022/08/29 01:39:55;;;;;;;12.80;4.32;;;;;;;16.31;100.00;156619.75;5020158;28;20475;-76
2022/08/29 01:42:23;;;;;;;20.20;4.80;;;;;;;16.33;100.00;156624.91;5009566;28;20041;-75
2022/08/29 01:44:57;;;;;;;21.13;4.95;;;;;;;16.34;100.00;156626.16;5019073;28;20121;-76
2022/08/29 01:47:26;;;;;;;10.40;3.92;;;;;;;16.37;100.00;156632.59;5006347;28;20076;-76
2022/08/29 01:49:52;;;;;;;18.48;4.70;;;;;;;16.37;100.00;156632.59;4992365;28;20030;-79
2022/08/29 01:52:18;;;;;;;15.82;4.95;;;;;;;16.34;100.00;156626.16;4990020;28;20029;-76
2022/08/29 01:54:45;;;;;;;15.48;4.78;;;;;;;16.33;100.00;156623.56;5018117;28;20040;-76
2022/08/29 01:57:12;;;;;;;18.20;4.95;;;;;;;16.37;100.00;156632.59;5012986;28;20133;-76
2022/08/29 01:59:38;;;;;;;16.95;4.70;;;;;;;16.33;100.00;156623.56;5020479;28;20045;-76
2022/08/29 02:02:11;;;;;;;15.88;4.78;;;;;;;16.31;100.00;156618.44;5008969;28;20092;-76
2022/08/29 02:04:39;;;;;;;20.58;4.75;;;;;;;16.30;100.00;156617.16;5002542;28;20491;-76
2022/08/29 02:07:05;;;;;;;21.45;4.70;;;;;;;16.31;100.00;156619.75;4989393;28;20152;-76
2022/08/29 02:09:31;;;;;;;13.43;4.65;;;;;;;16.30;100.00;156617.16;5021104;28;20099;-75
2022/08/29 02:11:57;;;;;;;19.77;4.40;;;;;;;16.30;100.00;156615.88;5010397;28;20673;-75
2022/08/29 02:14:23;;;;;;;16.92;4.63;;;;;;;16.30;100.00;156617.16;5000810;28;20037;-75
2022/08/29 02:16:49;;;;;;;19.45;5.13;;;;;;;16.31;100.00;156619.75;5013695;28;20132;-73
2022/08/29 02:19:15;;;;;;;19.20;4.72;;;;;;;16.25;100.00;156603.00;4992278;28;20065;-74
2022/08/29 02:21:42;;;;;;;17.33;4.78;;;;;;;16.34;100.00;156627.44;5021046;28;20074;-75
2022/08/29 02:24:08;;;;;;;17.63;5.28;;;;;;;16.31;100.00;156619.75;4991399;28;20038;-76
2022/08/29 02:26:33;;;;;;;13.23;4.93;;;;;;;16.27;100.00;156609.41;5024820;28;20088;-74
2022/08/29 02:29:00;;;;;;;17.15;4.82;;;;;;;16.30;100.00;156617.16;5004737;28;20073;-75
2022/08/29 02:31:26;;;;;;;18.52;5.32;;;;;;;16.27;100.00;156609.41;4992075;28;20064;-76
2022/08/29 02:33:53;;;;;;;15.88;5.15;;;;;;;16.26;100.00;156606.88;4992217;28;20026;-76
2022/08/29 02:36:20;;;;;;;13.85;4.95;;;;;;;16.27;100.00;156608.16;5010287;28;20033;-75
2022/08/29 02:38:46;;;;;;;17.10;5.68;;;;;;;16.25;100.00;156604.28;5037482;28;20041;-75
2022/08/29 02:41:12;;;;;;;16.70;5.13;;;;;;;16.28;100.00;156612.00;5009035;28;20783;-77
2022/08/29 02:43:38;;;;;;;20.02;5.75;;;;;;;16.30;100.00;156617.16;5015713;28;20030;-74
2022/08/29 02:46:04;;;;;;;22.73;6.07;;;;;;;16.30;100.00;156615.88;4979849;28;20040;-75
2022/08/29 02:48:29;;;;;;;20.45;5.55;;;;;;;16.35;100.00;156628.78;5010239;28;20037;-75
2022/08/29 02:50:59;;;;;;;22.08;6.53;;;;;;;16.36;100.00;156631.31;5006126;28;20041;-75
2022/08/29 02:53:27;;;;;;;22.40;5.60;;;;;;;16.29;100.00;156614.59;5008959;28;20057;-75
2022/08/29 02:55:53;;;;;;;18.65;5.10;;;;;;;16.27;100.00;156608.16;5033505;28;20033;-76
2022/08/29 02:58:21;;;;;;;19.02;5.57;;;;;;;16.34;100.00;156626.16;5032851;28;20500;-76
2022/08/29 03:00:46;;;;;;;21.05;6.03;;;;;;;16.31;100.00;156619.75;4987860;28;20423;-75
2022/08/29 03:03:12;;;;;;;18.67;5.60;;;;;;;16.28;100.00;156610.75;5010535;28;20112;-77
2022/08/29 03:05:38;;;;;;;25.75;6.05;;;;;;;16.29;100.00;156614.59;5023115;28;20041;-76
2022/08/29 03:08:07;;;;;;;20.25;5.00;;;;;;;16.29;100.00;156613.28;5019557;28;20033;-77
2022/08/29 03:10:34;;;;;;;17.77;5.15;;;;;;;16.27;100.00;156608.16;5007457;28;20134;-75
2022/08/29 03:12:59;;;;;;;16.00;4.85;;;;;;;16.25;100.00;156603.00;5019809;28;20118;-77
2022/08/29 03:15:25;;;;;;;19.30;5.22;;;;;;;16.27;100.00;156609.41;5031562;28;20037;-76
2022/08/29 03:17:51;;;;;;;14.73;5.03;;;;;;;16.28;100.00;156612.00;5016708;28;20347;-76
2022/08/29 03:20:19;;;;;;;20.50;5.50;;;;;;;16.29;100.00;156614.59;5014155;28;20037;-76
2022/08/29 03:22:45;;;;;;;21.38;5.78;;;;;;;16.33;100.00;156624.91;5013797;28;20041;-75
2022/08/29 03:25:12;;;;;;;18.52;4.93;;;;;;;16.34;100.00;156626.16;5022524;28;20046;-77
2022/08/29 03:27:38;;;;;;;16.15;5.50;;;;;;;16.29;100.00;156614.59;5011245;28;20046;-76
2022/08/29 03:30:10;;;;;;;15.00;5.00;;;;;;;16.28;100.00;156612.00;4990737;28;20041;-75
2022/08/29 03:32:36;;;;;;;13.88;5.18;;;;;;;16.24;100.00;156600.44;5020160;28;20109;-76
2022/08/29 03:35:07;;;;;;;22.25;5.53;;;;;;;16.18;100.00;156586.28;5038837;28;20037;-76
2022/08/29 03:37:33;;;;;;;19.77;5.50;;;;;;;16.10;100.00;156566.94;5028476;28;20069;-76
2022/08/29 03:40:00;;;;;;;18.77;5.78;;;;;;;16.01;100.00;156542.47;5009783;28;20119;-77
2022/08/29 03:42:26;;;;;;;17.50;5.10;;;;;;;15.90;100.00;156515.50;5000248;28;20045;-76
2022/08/29 03:44:52;;;;;;;19.48;5.50;;;;;;;15.81;100.00;156493.59;5023147;28;20042;-76
2022/08/29 03:47:19;;;;;;;22.52;6.63;;;;;;;15.68;100.00;156460.09;5006046;28;20040;-75
2022/08/29 03:49:45;;;;;;;19.65;5.65;;;;;;;15.51;100.00;156418.88;4992121;28;20033;-76
2022/08/29 03:52:10;;;;;;;25.00;6.07;;;;;;;15.39;100.00;156388.03;5007143;28;20037;-75
2022/08/29 03:54:37;;;;;;;17.38;5.43;;;;;;;15.27;100.00;156358.41;5025034;28;20451;-76
2022/08/29 03:57:04;;;;;;;18.00;5.63;;;;;;;15.19;100.00;156337.84;5007510;28;20033;-75
2022/08/29 03:59:30;;;;;;;18.25;5.32;;;;;;;15.19;100.00;156339.09;5021265;28;20033;-75
2022/08/29 04:01:57;;;;;;;20.73;6.05;;;;;;;15.16;100.00;156330.09;4994742;28;20040;-75
2022/08/29 04:07:08;;;;;;;21.80;6.43;;;;;;;15.06;100.00;156305.66;5002658;28;20195;-75
2022/08/29 04:09:36;;;;;;;22.45;6.55;;;;;;;15.05;100.00;156303.13;5005004;28;20033;-74
2022/08/29 04:12:02;;;;;;;19.17;6.05;;;;;;;15.07;100.00;156306.94;5003507;28;20128;-73
2022/08/29 04:14:28;;;;;;;18.92;4.90;;;;;;;15.07;100.00;156306.94;4994558;28;20128;-75
2022/08/29 04:16:54;;;;;;;17.25;5.63;;;;;;;15.08;100.00;156310.81;4993603;28;20033;-74
2022/08/29 04:19:20;;;;;;;23.73;6.00;;;;;;;15.09;100.00;156313.41;5021021;28;20030;-74
2022/08/29 04:21:47;;;;;;;22.13;6.65;;;;;;;15.09;100.00;156313.41;5031524;28;20900;-75
2022/08/29 04:24:14;;;;;;;20.27;6.95;;;;;;;15.17;100.00;156333.97;5013912;28;20064;-75
2022/08/29 04:26:40;;;;;;;20.60;6.88;;;;;;;15.30;100.00;156366.13;5025399;28;20045;-75
2022/08/29 04:29:08;;;;;;;18.98;6.63;;;;;;;15.33;100.00;156372.56;5018246;28;20029;-74
2022/08/29 04:31:35;;;;;;;22.35;7.20;;;;;;;15.38;100.00;156386.72;5014535;28;20038;-73
2022/08/29 04:34:02;;;;;;;22.95;7.80;;;;;;;15.61;100.00;156443.34;5023126;28;20398;-72
2022/08/29 04:36:28;;;;;;;25.30;7.75;;;;;;;15.69;100.00;156462.63;5028802;28;20506;-74
2022/08/29 04:38:54;;;;;;;30.48;8.00;;;;;;;15.75;100.00;156478.16;5008442;28;20030;-74
2022/08/29 04:41:20;;;;;;;24.88;7.88;;;;;;;15.79;100.00;156488.44;5015126;28;20094;-72
2022/08/29 04:43:47;;;;;;;22.70;7.55;;;;;;;15.83;100.00;156497.47;5028190;28;20041;-71
2022/08/29 04:46:14;;;;;;;25.20;8.40;;;;;;;15.89;100.00;156512.88;5021032;28;20478;-74
2022/08/29 04:48:39;;;;;;;22.40;8.27;;;;;;;15.94;100.00;156525.78;5025563;28;20641;-74
2022/08/29 04:51:05;;;;;;;18.15;6.57;;;;;;;15.97;100.00;156533.47;5002024;28;20026;-74
2022/08/29 04:53:31;;;;;;;21.25;7.28;;;;;;;15.99;100.00;156538.63;5004627;28;20068;-75
2022/08/29 04:56:07;;;;;;;24.20;7.10;;;;;;;15.99;100.00;156537.34;5005834;28;20125;-78
2022/08/29 04:58:35;;;;;;;20.50;7.30;;;;;;;16.02;100.00;156545.09;5024573;28;20044;-75
2022/08/29 05:01:02;;;;;;;18.73;7.03;;;;;;;16.09;100.00;156564.38;5024797;28;20029;-76
2022/08/29 05:03:29;;;;;;;19.92;8.48;;;;;;;16.24;100.00;156601.72;5019574;28;20088;-74
2022/08/29 05:05:55;;;;;;;17.83;8.95;;;;;;;16.24;100.00;156601.72;5026541;28;20091;-74
2022/08/29 05:08:22;;;;;;;23.00;8.55;;;;;;;16.29;100.00;156613.28;5012802;28;20025;-75
2022/08/29 05:10:47;;;;;;;19.02;9.57;;;;;;;16.27;100.00;156608.16;5025747;28;20034;-76
2022/08/29 05:13:13;;;;;;;16.95;9.73;;;;;;;16.22;100.00;156596.56;5027302;28;20387;-75
2022/08/29 05:15:39;;;;;;;19.90;9.40;;;;;;;16.09;100.00;156564.38;5003644;28;20180;-76
2022/08/29 05:18:05;;;;;;;14.07;9.07;;;;;;;16.05;100.00;156552.78;5004500;28;20045;-75
2022/08/29 05:20:31;;;;;;;14.65;8.57;;;;;;;15.98;100.00;156536.06;5024919;28;20100;-75
2022/08/29 05:22:58;;;;;;;10.98;7.72;;;;;;;16.06;100.00;156556.66;5019540;28;20038;-74
2022/08/29 05:25:24;;;;;;;13.57;7.63;;;;;;;16.06;100.00;156556.66;4995076;28;20063;-75
2022/08/29 05:27:50;;;;;;;11.75;7.32;;;;;;;16.07;100.00;156557.97;5008835;28;20049;-75
2022/08/29 05:30:16;;;;;;;11.57;6.90;;;;;;;16.08;100.00;156560.50;5020417;28;20057;-74
2022/08/29 05:32:43;;;;;;;16.80;7.72;;;;;;;16.01;100.00;156543.81;5012645;28;20045;-75
2022/08/29 05:35:08;;;;;;;12.95;7.22;;;;;;;16.08;100.00;156560.50;5007400;28;20030;-74
2022/08/29 05:37:34;;;;;;;12.10;6.07;;;;;;;16.16;100.00;156581.09;5015303;28;20038;-74
2022/08/29 05:40:01;;;;;;;12.57;5.20;;;;;;;16.20;100.00;156591.44;5015249;28;20560;-74
2022/08/29 05:42:26;;;;;;;7.35;3.88;;;;;;;16.18;100.00;156586.28;5018031;28;20029;-75
2022/08/29 05:44:52;;;;;;;5.05;3.75;;;;;;;16.27;100.00;156609.41;5013463;28;20049;-75
2022/08/29 05:47:19;;;;;;;7.45;3.70;;;;;;;16.31;100.00;156619.75;4992297;28;20033;-75
2022/08/29 05:49:46;;;;;;;6.18;3.55;;;;;;;16.33;100.00;156623.56;5013501;28;20132;-74
2022/08/29 05:52:14;;;;;;;12.30;3.58;;;;;;;16.35;100.00;156628.78;5005039;28;20060;-76
2022/08/29 05:54:42;;;;;;;3.85;3.10;;;;;;;16.20;100.00;156591.44;5011451;28;20048;-75
2022/08/29 05:57:09;;;;;;;6.57;3.40;;;;;;;16.17;100.00;156582.41;5017774;28;20030;-74
2022/08/29 05:59:38;;;;;;;4.55;3.03;;;;;;;16.20;100.00;156590.09;5019701;28;20033;-76
2022/08/29 06:02:06;;;;;;;5.38;2.80;;;;;;;16.22;100.00;156595.25;4998864;28;20033;-74
2022/08/29 06:04:32;;;;;;;5.90;2.40;;;;;;;16.36;100.00;156631.31;5014846;28;20041;-74
2022/08/29 06:06:58;;;;;;;4.22;2.42;;;;;;;16.45;100.00;156653.22;5010513;28;20076;-76
2022/08/29 06:09:24;;;;;;;3.67;2.40;;;;;;;16.46;100.00;156657.09;4994537;28;20053;-76
2022/08/29 06:11:56;;;;;;;3.45;2.40;;;;;;;16.47;100.00;156659.66;5011174;28;20123;-75
2022/08/29 06:14:22;;;;;;;6.57;2.50;;;;;;;16.52;100.00;156672.53;5020985;28;20449;-77
2022/08/29 06:16:47;;;;;;;5.65;2.22;;;;;;;16.48;100.00;156660.91;5025023;28;20076;-76
2022/08/29 06:19:13;;;;;;;3.10;2.20;;;;;;;16.44;100.00;156651.91;4991894;28;20083;-75
2022/08/29 06:21:39;;;;;;;5.82;2.55;;;;;;;16.34;100.00;156626.16;5026482;28;20044;-75
2022/08/29 06:24:05;;;;;;;4.32;2.10;;;;;;;16.42;100.00;156646.75;5006427;28;20068;-74
2022/08/29 06:26:31;;;;;;;4.95;2.22;;;;;;;16.57;100.00;156684.09;5003655;28;20065;-74
2022/08/29 06:28:57;;;;;;;5.10;2.25;;;;;;;16.77;100.00;156734.34;4987768;28;20445;-74
2022/08/29 06:31:26;;;;;;;4.97;2.00;;;;;;;16.93;100.00;156774.28;5011488;28;20029;-75
2022/08/29 06:33:55;;;;;;;5.55;2.08;;;;;;;17.11;100.00;156819.38;5015784;28;20034;-75
2022/08/29 06:36:20;;;;;;;7.60;2.42;;;;;;;17.11;100.00;156820.66;5007125;28;20479;-75
2022/08/29 06:38:46;;;;;;;3.47;2.28;;;;;;;17.07;100.00;156809.09;5017374;28;20038;-75
2022/08/29 06:41:15;;;;;;;6.38;2.10;;;;;;;17.02;100.00;156797.47;5032163;28;20042;-76
2022/08/29 06:43:41;;;;;;;5.70;2.17;;;;;;;17.06;100.00;156806.50;5010758;28;20048;-75
2022/08/29 06:46:07;;;;;;;4.28;2.50;;;;;;;16.91;100.00;156769.13;5006993;28;20033;-75
2022/08/29 06:48:34;;;;;;;4.88;2.38;;;;;;;16.89;100.00;156765.28;5008290;28;20636;-74
2022/08/29 06:51:01;;;;;;;5.55;2.47;;;;;;;17.09;100.00;156815.50;5036431;28;20033;-74
2022/08/29 06:53:27;;;;;;;5.20;2.65;;;;;;;17.16;100.00;156832.28;5018532;28;20030;-74
2022/08/29 06:55:53;;;;;;;5.07;2.60;;;;;;;17.05;100.00;156803.94;5022288;28;20407;-75
2022/08/29 06:58:19;;;;;;;5.57;2.38;;;;;;;16.98;100.00;156787.19;5016552;28;20750;-75
2022/08/29 07:00:45;;;;;;;6.93;2.33;;;;;;;17.06;100.00;156806.50;4997956;28;20033;-75
2022/08/29 07:03:11;;;;;;;2.17;1.95;;;;;;;16.98;100.00;156785.91;5016049;28;20037;-75
2022/08/29 07:05:36;;;;;;;2.30;2.10;;;;;;;17.16;100.00;156830.97;5021718;28;20034;-75
2022/08/29 07:08:02;;;;;;;5.10;2.05;;;;;;;17.36;100.00;156882.50;5015212;28;20430;-74
2022/08/29 07:10:28;;;;;;;4.40;1.60;;;;;;;17.73;100.00;156974.00;5013293;28;20079;-71
2022/08/29 07:12:54;;;;;;;4.72;2.00;;;;;;;17.60;100.00;156941.78;4998207;28;20041;-74
2022/08/29 07:15:22;;;;;;;4.00;1.80;;;;;;;17.77;100.00;156984.28;5030780;28;20048;-72
2022/08/29 07:17:48;;;;;;;3.88;1.60;;;;;;;18.11;100.00;157070.66;5002268;28;20049;-74
2022/08/29 07:20:15;;;;;;;4.15;1.65;;;;;;;18.36;100.00;157133.81;5004405;28;20038;-74
2022/08/29 07:22:41;;;;;;;3.65;1.52;;;;;;;18.25;100.00;157105.44;5015316;28;20040;-75
2022/08/29 07:25:09;;;;;;;3.42;1.30;;;;;;;18.51;100.00;157171.19;5015546;28;20029;-76
2022/08/29 07:27:35;;;;;;;2.53;1.30;;;;;;;18.56;100.00;157184.09;5016620;28;20109;-76
2022/08/29 07:30:01;;;;;;;2.35;1.20;;;;;;;18.45;100.00;157157.00;5016111;28;20050;-75
2022/08/29 07:32:28;;;;;;;3.45;1.50;;;;;;;18.21;100.00;157095.13;5010568;28;20487;-78
2022/08/29 07:34:54;;;;;;;3.28;1.40;;;;;;;18.23;100.00;157100.28;5020047;28;20041;-76
2022/08/29 07:37:19;;;;;;;3.58;1.40;;;;;;;18.55;100.00;157181.50;5004762;28;20367;-78
2022/08/29 07:39:45;;;;;;;3.75;1.42;;;;;;;18.78;100.00;157238.22;5023739;28;20044;-75
2022/08/29 07:42:12;;;;;;;2.17;1.30;;;;;;;19.11;100.00;157320.81;5000375;28;20049;-76
2022/08/29 07:44:37;;;;;;;3.60;1.20;;;;;;;19.57;98.97;157438.16;5023907;28;20041;-76
2022/08/29 07:47:03;;;;;;;3.75;1.50;;;;;;;19.74;97.07;157480.78;5026343;28;20669;-76
2022/08/29 07:49:31;;;;;;;4.53;1.58;;;;;;;19.39;97.81;157393.00;5018828;28;20026;-76
2022/08/29 07:51:57;;;;;;;4.68;1.30;;;;;;;19.20;98.91;157344.03;5013518;28;20037;-78
2022/08/29 07:54:22;;;;;;;8.88;1.17;;;;;;;19.36;98.32;157385.25;5020031;28;20030;-76
2022/08/29 07:56:51;;;;;;;7.32;1.33;;;;;;;19.34;96.73;157378.81;5003236;28;20060;-80
2022/08/29 07:59:18;;;;;;;7.45;1.30;;;;;;;19.24;96.53;157355.59;5016631;28;20030;-73
2022/08/29 08:01:44;;;;;;;5.90;1.25;;;;;;;19.34;97.66;157380.09;5025191;28;20486;-75
2022/08/29 08:04:11;;;;;;;6.53;1.45;;;;;;;19.29;97.56;157367.22;5029100;28;20041;-75
2022/08/29 08:06:39;;;;;;;6.43;1.60;;;;;;;19.17;98.55;157336.25;5028741;28;20048;-74
2022/08/29 08:09:08;;;;;;;2.13;1.40;;;;;;;19.13;98.59;157325.97;5017123;28;20030;-76
2022/08/29 08:11:35;;;;;;;9.98;1.77;;;;;;;19.09;99.44;157315.66;5014124;28;20030;-75
2022/08/29 08:14:01;;;;;;;2.72;1.35;;;;;;;19.11;100.00;157322.09;5000992;28;20034;-75
2022/08/29 08:16:28;;;;;;;5.95;1.55;;;;;;;19.30;97.90;157368.50;5031039;28;20056;-78
2022/08/29 08:18:54;;;;;;;3.78;1.30;;;;;;;19.24;97.35;157354.31;5017594;28;20030;-76
2022/08/29 08:21:21;;;;;;;2.80;1.20;;;;;;;19.14;98.35;157329.84;5019754;28;20025;-76
2022/08/29 08:23:47;;;;;;;12.90;1.25;;;;;;;19.25;98.11;157358.19;5029564;28;20037;-75
2022/08/29 08:26:14;;;;;;;3.50;1.05;;;;;;;19.25;96.74;157358.19;5000723;28;20057;-75
2022/08/29 08:28:42;;;;;;;3.38;1.27;;;;;;;19.20;97.49;157344.03;5013487;28;20072;-76
2022/08/29 08:31:10;;;;;;;4.18;1.10;;;;;;;19.39;96.50;157391.72;5023014;28;20037;-74
2022/08/29 08:33:39;;;;;;;1.48;1.05;;;;;;;19.83;93.68;157504.00;5017130;28;20045;-75
2022/08/29 08:36:15;;;;;;;2.30;0.90;;;;;;;20.16;91.19;157586.56;5025467;28;20040;-76
2022/08/29 08:38:41;;;;;;;2.42;1.00;;;;;;;20.56;89.84;157685.91;5003955;28;20041;-75
2022/08/29 08:41:18;;;;;;;4.80;0.90;;;;;;;20.77;89.55;157740.13;5037985;28;20482;-78
2022/08/29 08:43:49;;;;;;;2.58;1.17;;;;;;;21.02;88.28;157800.81;4984027;28;20038;-74
2022/08/29 08:46:15;;;;;;;3.20;1.50;;;;;;;20.70;88.13;157722.09;5015617;28;20099;-74
2022/08/29 08:48:42;;;;;;;5.35;1.00;;;;;;;20.16;89.80;157585.28;5017640;28;20030;-75
2022/08/29 08:51:19;;;;;;;4.60;0.90;;;;;;;20.08;91.83;157564.59;5022638;28;20165;-75
2022/08/29 08:53:53;;;;;;;6.57;1.27;;;;;;;20.07;91.62;157562.03;5024621;28;20033;-75
2022/08/29 08:56:34;;;;;;;3.90;1.00;;;;;;;19.99;91.41;157542.69;5020333;28;20036;-76
2022/08/29 08:59:15;;;;;;;1.83;1.00;;;;;;;19.81;90.35;157498.81;5006034;28;20368;-76
2022/08/29 09:01:57;;;;;;;2.28;0.70;;;;;;;19.75;92.14;157482.06;5020417;28;20507;-75
2022/08/29 09:04:49;;;;;;;4.30;0.90;;;;;;;19.83;90.42;157504.00;5006384;28;20120;-75
2022/08/29 09:07:30;;;;;;;2.37;1.10;;;;;;;19.76;90.87;157484.63;5019259;28;20124;-73
2022/08/29 09:10:04;;;;;;;6.40;1.00;;;;;;;19.95;91.62;157532.38;5020737;28;20025;-75
2022/08/29 09:12:44;;;;;;;1.15;1.05;;;;;;;20.17;91.71;157589.16;5019346;28;20038;-75
2022/08/29 09:15:21;;;;;;;3.00;1.00;;;;;;;20.47;88.11;157662.66;5019812;28;20086;-74
2022/08/29 09:17:51;;;;;;;3.38;1.27;;;;;;;20.44;85.63;157656.25;5019164;28;20044;-75
2022/08/29 09:20:27;;;;;;;5.72;1.27;;;;;;;20.50;86.30;157671.72;5013942;28;20124;-74
2022/08/29 09:22:59;;;;;;;2.88;0.93;;;;;;;20.73;88.00;157728.53;5030705;28;20094;-76
2022/08/29 09:25:28;;;;;;;3.95;1.05;;;;;;;21.02;85.85;157800.81;5027201;28;20033;-73
2022/08/29 09:27:58;;;;;;;3.40;1.13;;;;;;;21.33;83.10;157880.84;5023985;28;20085;-72
2022/08/29 09:30:28;;;;;;;5.47;1.00;;;;;;;21.27;83.19;157864.09;5024014;28;20040;-73
2022/08/29 09:33:07;;;;;;;3.15;0.88;;;;;;;20.88;83.38;157767.25;5035934;28;20044;-73
2022/08/29 09:35:41;;;;;;;1.73;1.15;;;;;;;20.57;85.49;157689.78;5023208;28;20128;-74
2022/08/29 09:38:17;;;;;;;4.75;1.15;;;;;;;20.63;85.84;157702.75;5025946;28;20033;-74
2022/08/29 09:40:57;;;;;;;1.67;0.85;;;;;;;21.13;84.90;157830.47;5017730;28;20108;-74
2022/08/29 09:43:30;;;;;;;2.05;0.90;;;;;;;20.97;82.61;157790.50;5023213;28;20083;-75
2022/08/29 09:46:10;;;;;;;1.50;0.88;;;;;;;21.39;81.93;157896.31;5012266;28;20110;-74
2022/08/29 09:48:39;;;;;;;2.88;0.73;;;;;;;21.20;81.44;157848.56;5012915;28;20479;-75
2022/08/29 09:51:28;;;;;;;4.80;1.10;;;;;;;21.03;82.74;157804.69;5020789;28;20040;-74
2022/08/29 09:54:36;;;;;;;0.80;0.80;;;;;;;20.92;82.32;157777.56;5024996;28;20065;-75
2022/08/29 09:57:09;;;;;;;3.53;0.90;;;;;;;21.05;84.14;157808.56;5023437;28;20049;-74
2022/08/29 09:59:41;;;;;;;1.52;0.90;;;;;;;21.04;82.37;157805.97;5019245;28;20125;-75
2022/08/29 10:02:28;;;;;;;4.47;0.85;;;;;;;20.89;83.87;157769.84;5015521;28;20037;-78
2022/08/29 10:05:08;;;;;;;1.20;0.75;;;;;;;20.96;84.14;157786.59;5006439;28;20410;-71
2022/08/29 10:07:46;;;;;;;2.40;0.90;;;;;;;20.63;85.52;157704.03;5019323;28;20033;-74
2022/08/29 10:10:16;;;;;;;5.60;1.00;;;;;;;20.51;87.79;157674.31;5006786;28;20096;-73
2022/08/29 10:13:01;;;;;;;1.13;0.50;;;;;;;20.55;86.66;157684.63;5022309;28;20542;-74
2022/08/29 10:15:33;;;;;;;4.22;1.00;;;;;;;20.75;87.05;157734.97;5021565;28;20041;-73
2022/08/29 10:18:26;;;;;;;0.60;0.60;;;;;;;21.03;86.67;157804.69;5024631;28;20033;-73
2022/08/29 10:21:06;;;;;;;2.05;0.88;;;;;;;21.44;82.68;157906.69;4995001;28;20124;-73
2022/08/29 10:24:10;;;;;;;2.20;0.80;;;;;;;21.77;79.92;157990.63;5027196;28;20042;-73
2022/08/29 10:26:59;;;;;;;4.45;0.90;;;;;;;22.26;77.91;158114.66;5024198;28;20065;-73
2022/08/29 10:29:31;;;;;;;1.88;1.08;;;;;;;22.42;79.72;158153.44;5018300;28;20068;-74
2022/08/29 10:32:03;;;;;;;3.30;0.93;;;;;;;22.39;77.28;158146.97;5021955;28;20041;-73
2022/08/29 10:34:47;;;;;;;2.95;0.80;;;;;;;21.88;77.85;158017.75;5001899;28;20088;-75
2022/08/29 10:37:37;;;;;;;1.02;0.90;;;;;;;21.53;80.15;157929.94;5015039;28;20040;-75
2022/08/29 10:40:17;;;;;;;1.73;0.77;;;;;;;21.56;81.61;157938.97;5003810;28;20045;-75
2022/08/29 10:42:44;;;;;;;1.38;0.70;;;;;;;21.42;79.76;157901.47;5023720;28;20055;-74
2022/08/29 10:45:28;;;;;;;0.60;0.60;;;;;;;21.37;79.94;157891.16;5016613;28;20044;-75
2022/08/29 10:48:18;;;;;;;0.90;0.60;;;;;;;21.65;80.04;157959.66;5017634;28;20132;-74
2022/08/29 10:51:02;;;;;;;1.08;0.50;;;;;;;21.79;78.29;157995.78;5004440;28;20095;-74
2022/08/29 10:53:35;;;;;;;2.17;0.70;;;;;;;21.97;76.62;158042.28;5019566;28;20110;-74
2022/08/29 10:56:26;;;;;;;2.58;0.60;;;;;;;22.16;76.29;158088.78;5017127;28;20160;-74
2022/08/29 10:58:57;;;;;;;3.10;0.70;;;;;;;21.76;76.35;157988.06;5017259;28;20033;-74
2022/08/29 11:01:34;;;;;;;1.10;0.57;;;;;;;21.54;79.57;157932.53;5022684;28;20103;-74
2022/08/29 11:04:18;;;;;;;1.73;0.60;;;;;;;21.46;80.18;157911.91;5012376;28;20093;-74
2022/08/29 11:06:53;;;;;;;2.17;0.80;;;;;;;21.37;81.06;157889.88;5020511;28;20061;-74
2022/08/29 11:09:42;;;;;;;1.17;0.60;;;;;;;21.07;80.79;157813.72;5021660;28;20045;-75
2022/08/29 11:12:32;;;;;;;2.95;0.68;;;;;;;20.97;81.90;157790.50;5018394;28;20116;-75
2022/08/29 11:15:37;;;;;;;0.63;0.57;;;;;;;20.91;83.56;157773.75;4999195;28;20124;-74
2022/08/29 11:18:28;;;;;;;2.50;0.55;;;;;;;20.95;81.92;157785.34;5032347;28;20033;-74
2022/08/29 11:21:06;;;;;;;0.90;0.40;;;;;;;21.10;80.75;157821.50;5032858;28;20541;-75
2022/08/29 11:23:41;;;;;;;2.70;0.93;;;;;;;21.22;80.67;157851.16;5008582;28;20380;-74
2022/08/29 11:26:18;;;;;;;2.42;0.65;;;;;;;21.33;80.50;157880.84;5014097;28;20033;-76
2022/08/29 11:29:03;;;;;;;2.70;0.60;;;;;;;21.49;79.19;157920.94;5025452;28;20041;-73
2022/08/29 11:31:31;;;;;;;2.03;0.73;;;;;;;21.64;77.93;157958.34;5013896;28;20635;-74
2022/08/29 11:34:25;;;;;;;4.38;0.50;;;;;;;21.80;77.42;157997.13;5020121;28;20041;-76